Time;durP1;ratioP1;P1;durP2;ratioP2;P2;SDS_P1;SDS_P2;PMS_P1;PMS_P2;Temp;Humidity;BMP_temperature;BMP_pressure;BME280_temperature;BME280_humidity;BME280_pressure;Samples;Min_cycle;Max_cycle;Signal;HPM_P1;HPM_P2
2021/08/02 00:01:05;;;;;;;8.75;6.07;;;16.40;99.90;;;;;;6271699;22;20010;-58
2021/08/02 00:03:56;;;;;;;10.00;5.25;;;16.50;99.90;;;;;;6272905;22;20385;-57
2021/08/02 00:06:24;;;;;;;9.93;6.70;;;16.50;99.90;;;;;;6273320;22;20011;-58
2021/08/02 00:09:06;;;;;;;11.07;7.47;;;16.50;99.90;;;;;;6274278;22;20086;-54
2021/08/02 00:11:34;;;;;;;14.07;7.57;;;16.50;99.90;;;;;;6274438;22;20008;-56
2021/08/02 00:14:04;;;;;;;12.00;6.80;;;16.50;99.90;;;;;;6273181;22;20316;-57
2021/08/02 00:16:30;;;;;;;10.75;7.35;;;16.50;99.90;;;;;;6273931;22;20238;-57
2021/08/02 00:18:55;;;;;;;12.68;8.25;;;16.50;99.90;;;;;;6275452;22;20380;-55
2021/08/02 00:21:21;;;;;;;13.07;7.97;;;16.60;99.90;;;;;;6274224;22;20010;-52
2021/08/02 00:23:48;;;;;;;10.32;7.28;;;16.50;99.90;;;;;;6247415;22;20015;-54
2021/08/02 00:26:14;;;;;;;12.20;8.15;;;16.50;99.90;;;;;;6273160;22;20351;-55
2021/08/02 00:28:40;;;;;;;10.73;8.32;;;16.60;99.90;;;;;;6274513;22;20073;-53
2021/08/02 00:31:06;;;;;;;12.73;7.63;;;16.50;99.90;;;;;;6274061;22;20031;-54
2021/08/02 00:33:32;;;;;;;13.10;8.10;;;16.40;99.90;;;;;;6274458;22;20011;-55
2021/08/02 00:36:08;;;;;;;16.10;9.02;;;16.40;99.90;;;;;;6274060;22;20004;-57
2021/08/02 00:38:51;;;;;;;16.80;9.15;;;16.40;99.90;;;;;;6273552;22;20003;-53
2021/08/02 00:41:19;;;;;;;15.25;8.57;;;16.40;99.90;;;;;;6274462;22;20007;-58
2021/08/02 00:44:02;;;;;;;16.08;9.05;;;16.50;99.90;;;;;;6272217;22;20344;-54
2021/08/02 00:46:37;;;;;;;20.20;10.38;;;16.50;99.90;;;;;;6273616;22;20006;-56
2021/08/02 00:49:04;;;;;;;;;;;16.30;99.90;;;;;;6274642;22;20382;-55
2021/08/02 00:51:36;;;;;;;18.63;11.13;;;16.30;99.90;;;;;;6273948;22;19899;-55
2021/08/02 00:54:02;;;;;;;18.02;11.85;;;16.30;99.90;;;;;;6273410;22;20038;-57
2021/08/02 00:56:31;;;;;;;24.27;11.18;;;16.20;99.90;;;;;;6246657;22;20019;-58
2021/08/02 00:59:01;;;;;;;16.30;11.60;;;16.20;99.90;;;;;;6274071;22;20002;-54
2021/08/02 01:01:26;;;;;;;24.27;12.88;;;16.30;99.90;;;;;;6273909;22;20227;-55
2021/08/02 01:03:54;;;;;;;16.80;11.77;;;16.30;99.90;;;;;;6273723;22;20364;-54
2021/08/02 01:06:20;;;;;;;18.30;12.60;;;16.30;99.90;;;;;;6272683;22;20448;-57
2021/08/02 01:08:50;;;;;;;20.08;11.20;;;16.30;99.90;;;;;;6273393;22;20011;-57
2021/08/02 01:11:20;;;;;;;18.33;12.57;;;16.30;99.90;;;;;;6273492;22;20008;-54
2021/08/02 01:13:46;;;;;;;16.77;12.35;;;16.30;99.90;;;;;;6273372;22;20007;-53
2021/08/02 01:16:12;;;;;;;22.13;13.75;;;16.30;99.90;;;;;;6272729;22;20427;-54
2021/08/02 01:18:39;;;;;;;19.80;14.65;;;16.30;99.90;;;;;;6273581;22;20053;-54
2021/08/02 01:21:09;;;;;;;23.35;15.82;;;16.30;99.90;;;;;;6273287;22;20000;-53
2021/08/02 01:23:36;;;;;;;18.90;12.23;;;16.30;99.90;;;;;;6274054;22;20412;-53
2021/08/02 01:26:07;;;;;;;21.00;15.23;;;16.30;99.90;;;;;;6274181;22;20043;-53
2021/08/02 01:28:33;;;;;;;22.83;15.43;;;16.40;99.90;;;;;;6273148;22;20011;-56
2021/08/02 01:31:01;;;;;;;22.42;15.55;;;16.40;99.90;;;;;;6273896;22;20004;-55
2021/08/02 01:33:31;;;;;;;22.85;15.02;;;16.40;99.90;;;;;;6273857;22;20491;-54
2021/08/02 01:36:02;;;;;;;18.80;13.77;;;16.40;99.90;;;;;;6273337;22;20079;-53
2021/08/02 01:38:30;;;;;;;24.75;16.25;;;16.40;99.90;;;;;;6273839;22;20317;-53
2021/08/02 01:40:56;;;;;;;23.92;16.17;;;16.40;99.90;;;;;;6273808;22;20004;-57
2021/08/02 01:43:22;;;;;;;26.95;17.02;;;16.40;99.90;;;;;;6273683;22;20130;-59
2021/08/02 01:46:11;;;;;;;31.48;16.33;;;16.40;99.90;;;;;;6273052;22;20485;-53
2021/08/02 01:48:54;;;;;;;25.45;17.50;;;16.30;99.90;;;;;;6274074;22;20324;-57
2021/08/02 01:51:36;;;;;;;25.88;18.98;;;16.20;99.90;;;;;;6273654;22;20000;-56
2021/08/02 01:54:10;;;;;;;25.20;16.52;;;16.20;99.90;;;;;;6273038;22;20000;-53
2021/08/02 01:56:53;;;;;;;24.73;16.60;;;16.20;99.90;;;;;;6272731;22;20000;-53
2021/08/02 01:59:24;;;;;;;29.98;19.73;;;16.10;99.90;;;;;;6273199;22;20432;-56
2021/08/02 02:02:00;;;;;;;27.77;17.27;;;16.10;99.90;;;;;;6272788;22;19996;-53
2021/08/02 02:04:32;;;;;;;32.45;19.15;;;16.20;99.90;;;;;;6271973;22;20101;-53
2021/08/02 02:07:00;;;;;;;31.00;18.63;;;16.10;99.90;;;;;;6272588;22;20012;-53
2021/08/02 02:09:29;;;;;;;28.15;18.23;;;16.10;99.90;;;;;;6245647;22;20003;-54
2021/08/02 02:11:56;;;;;;;29.67;17.08;;;16.10;99.90;;;;;;6273404;22;20008;-55
2021/08/02 02:14:26;;;;;;;36.30;19.92;;;16.20;99.90;;;;;;6273214;22;20000;-57
2021/08/02 02:16:55;;;;;;;25.90;17.52;;;16.20;99.90;;;;;;6272186;22;20010;-54
2021/08/02 02:19:23;;;;;;;24.48;16.60;;;16.20;99.90;;;;;;6273602;22;20423;-55
2021/08/02 02:21:50;;;;;;;28.83;18.80;;;16.30;99.90;;;;;;6273338;22;20000;-57
2021/08/02 02:24:16;;;;;;;27.85;17.63;;;16.30;99.90;;;;;;6272775;22;20440;-57
2021/08/02 02:26:43;;;;;;;25.40;17.58;;;16.30;99.90;;;;;;6271001;22;20022;-53
2021/08/02 02:29:12;;;;;;;23.20;17.27;;;16.30;99.90;;;;;;6273525;22;20415;-56
2021/08/02 02:31:41;;;;;;;26.00;16.63;;;16.20;99.90;;;;;;6273919;22;20339;-54
2021/08/02 02:34:07;;;;;;;29.92;19.00;;;16.30;99.90;;;;;;6273025;22;20008;-55
2021/08/02 02:36:36;;;;;;;27.70;19.67;;;16.20;99.90;;;;;;6271933;22;20328;-56
2021/08/02 02:39:04;;;;;;;27.27;17.50;;;16.10;99.90;;;;;;6272475;22;20071;-54
2021/08/02 02:41:33;;;;;;;30.73;18.48;;;16.10;99.90;;;;;;6273211;22;20027;-55
2021/08/02 02:43:59;;;;;;;28.88;18.80;;;16.10;99.90;;;;;;6272530;22;20339;-53
2021/08/02 02:46:26;;;;;;;21.85;16.38;;;16.10;99.90;;;;;;6272739;22;20031;-59
2021/08/02 02:48:54;;;;;;;27.10;18.10;;;16.10;99.90;;;;;;6273319;22;20471;-56
2021/08/02 02:51:20;;;;;;;28.58;17.38;;;16.00;99.90;;;;;;6272446;22;20444;-55
2021/08/02 02:53:47;;;;;;;30.33;19.08;;;16.00;99.90;;;;;;6273483;22;20497;-56
2021/08/02 02:56:15;;;;;;;30.15;18.83;;;16.00;99.90;;;;;;6271791;22;20010;-60
2021/08/02 02:58:42;;;;;;;30.15;16.73;;;15.90;99.90;;;;;;6272517;22;19996;-56
2021/08/02 03:01:09;;;;;;;26.63;17.80;;;15.90;99.90;;;;;;6272425;22;20002;-57
2021/08/02 03:03:38;;;;;;;25.98;16.00;;;16.00;99.90;;;;;;6271699;22;20378;-54
2021/08/02 03:06:05;;;;;;;25.38;15.95;;;16.10;99.90;;;;;;6272065;22;20012;-54
2021/08/02 03:08:34;;;;;;;30.33;16.58;;;16.10;99.90;;;;;;6272521;22;20049;-55
2021/08/02 03:11:01;;;;;;;26.58;16.50;;;16.10;99.90;;;;;;6273050;22;20011;-56
2021/08/02 03:13:26;;;;;;;25.98;15.77;;;16.20;99.90;;;;;;6272785;22;20042;-58
2021/08/02 03:15:52;;;;;;;23.58;17.33;;;16.20;99.90;;;;;;6271611;22;20333;-57
2021/08/02 03:18:18;;;;;;;23.02;15.07;;;16.20;99.90;;;;;;6271939;22;19999;-53
2021/08/02 03:20:44;;;;;;;23.67;15.82;;;16.20;99.90;;;;;;6272407;22;19999;-57
2021/08/02 03:23:56;;;;;;;26.52;15.80;;;16.20;99.90;;;;;;6272143;22;20387;-53
2021/08/02 03:26:29;;;;;;;25.17;16.15;;;16.30;99.90;;;;;;6147990;23;20001;-54
2021/08/02 03:29:04;;;;;;;24.83;17.20;;;16.20;99.90;;;;;;6148695;23;20064;-58
2021/08/02 03:31:40;;;;;;;25.50;16.85;;;16.20;99.90;;;;;;6226700;22;20012;-54
2021/08/02 03:34:10;;;;;;;21.55;15.68;;;16.20;99.90;;;;;;6273288;22;20004;-59
2021/08/02 03:36:36;;;;;;;24.98;16.35;;;16.20;99.90;;;;;;6272754;22;20021;-56
2021/08/02 03:39:02;;;;;;;32.95;15.90;;;16.20;99.90;;;;;;6272157;22;20056;-58
2021/08/02 03:41:28;;;;;;;27.70;15.48;;;16.20;99.90;;;;;;6272274;22;20035;-54
2021/08/02 03:43:56;;;;;;;21.80;15.07;;;16.20;99.90;;;;;;6272359;22;20038;-55
2021/08/02 03:46:23;;;;;;;23.85;14.45;;;16.20;99.90;;;;;;6271664;22;20410;-54
2021/08/02 03:48:49;;;;;;;20.50;14.73;;;16.20;99.90;;;;;;6272293;22;20004;-53
2021/08/02 03:51:15;;;;;;;26.73;14.10;;;16.10;99.90;;;;;;6272542;22;20008;-53
2021/08/02 03:53:42;;;;;;;22.50;14.82;;;16.20;99.90;;;;;;6272824;22;20424;-57
2021/08/02 03:56:08;;;;;;;21.63;13.65;;;16.10;99.90;;;;;;6271996;22;20022;-55
2021/08/02 03:58:34;;;;;;;20.33;13.20;;;16.10;99.90;;;;;;6270920;22;20470;-55
2021/08/02 04:01:00;;;;;;;24.17;14.43;;;16.20;99.90;;;;;;6272418;22;20000;-53
2021/08/02 04:03:26;;;;;;;25.85;15.13;;;16.10;99.90;;;;;;6271962;22;20019;-54
2021/08/02 04:05:54;;;;;;;22.35;13.82;;;16.00;99.90;;;;;;6272132;22;20082;-53
2021/08/02 04:08:19;;;;;;;20.15;13.95;;;16.10;99.90;;;;;;6272364;22;20000;-55
2021/08/02 04:10:45;;;;;;;22.23;13.80;;;16.00;99.90;;;;;;6271666;22;20182;-54
2021/08/02 04:13:10;;;;;;;17.88;11.50;;;16.00;99.90;;;;;;6272144;22;20095;-59
2021/08/02 04:15:37;;;;;;;25.05;13.70;;;16.10;99.90;;;;;;6272381;22;20031;-53
2021/08/02 04:18:03;;;;;;;23.58;13.63;;;16.00;99.90;;;;;;6272571;22;20006;-54
2021/08/02 04:20:29;;;;;;;24.75;13.23;;;16.00;99.90;;;;;;6272330;22;19995;-54
2021/08/02 04:22:54;;;;;;;18.90;12.07;;;16.00;99.90;;;;;;6272149;22;20011;-57
2021/08/02 04:25:20;;;;;;;21.60;12.23;;;16.10;99.90;;;;;;6271588;22;20542;-56
2021/08/02 04:27:46;;;;;;;18.63;11.98;;;16.10;99.90;;;;;;6271921;22;20103;-58
2021/08/02 04:30:12;;;;;;;24.10;11.77;;;16.20;99.90;;;;;;6272319;22;20432;-57
2021/08/02 04:32:47;;;;;;;18.15;11.65;;;16.20;99.90;;;;;;6272167;22;20062;-54
2021/08/02 04:35:12;;;;;;;20.13;12.10;;;16.20;99.90;;;;;;6272216;22;20081;-54
2021/08/02 04:37:38;;;;;;;22.13;11.80;;;16.20;99.90;;;;;;6271731;22;20440;-53
2021/08/02 04:40:07;;;;;;;18.33;11.35;;;16.20;99.90;;;;;;6272184;22;20074;-55
2021/08/02 04:42:37;;;;;;;20.98;11.80;;;16.10;99.90;;;;;;6271844;22;20004;-59
2021/08/02 04:45:05;;;;;;;19.08;11.55;;;16.00;99.90;;;;;;6272999;22;20067;-59
2021/08/02 04:47:30;;;;;;;22.20;11.82;;;16.00;99.90;;;;;;6271158;22;20023;-55
2021/08/02 04:49:56;;;;;;;23.27;10.88;;;16.00;99.90;;;;;;6273417;22;20003;-57
2021/08/02 04:52:21;;;;;;;17.73;10.85;;;16.10;99.90;;;;;;6273565;22;20006;-59
2021/08/02 04:54:47;;;;;;;18.33;11.15;;;16.20;99.90;;;;;;6274704;22;20374;-54
2021/08/02 04:57:13;;;;;;;18.85;11.63;;;16.20;99.90;;;;;;6272434;22;20494;-54
2021/08/02 04:59:39;;;;;;;18.50;10.82;;;16.20;99.90;;;;;;6273901;22;20003;-54
2021/08/02 05:02:06;;;;;;;22.45;10.90;;;16.10;99.90;;;;;;6273719;22;20010;-55
2021/08/02 05:04:32;;;;;;;24.02;11.50;;;16.10;99.90;;;;;;6273897;22;20000;-56
2021/08/02 05:06:58;;;;;;;20.33;9.95;;;16.10;99.90;;;;;;6274316;22;20014;-55
2021/08/02 05:09:23;;;;;;;22.17;11.77;;;16.10;99.90;;;;;;6274381;22;20332;-53
2021/08/02 05:11:51;;;;;;;22.20;12.38;;;16.20;99.90;;;;;;6273662;22;20004;-57
2021/08/02 05:14:17;;;;;;;20.60;11.75;;;16.20;99.90;;;;;;6273699;22;20051;-57
2021/08/02 05:16:44;;;;;;;22.55;13.25;;;16.20;99.90;;;;;;6273112;22;20044;-56
2021/08/02 05:19:10;;;;;;;20.42;12.55;;;16.20;99.90;;;;;;6272762;22;20063;-53
2021/08/02 05:21:35;;;;;;;29.35;12.88;;;16.30;99.90;;;;;;6273346;22;20366;-53
2021/08/02 05:24:01;;;;;;;15.15;10.85;;;16.40;99.90;;;;;;6273373;22;20003;-55
2021/08/02 05:26:26;;;;;;;23.40;13.55;;;16.40;99.90;;;;;;6273956;22;20463;-53
2021/08/02 05:28:52;;;;;;;15.55;11.15;;;16.50;99.90;;;;;;6273605;22;20347;-53
2021/08/02 05:31:17;;;;;;;26.38;12.48;;;16.50;99.90;;;;;;6273238;22;20031;-57
2021/08/02 05:33:43;;;;;;;19.50;12.50;;;16.40;99.90;;;;;;6274250;22;20011;-54
2021/08/02 05:36:09;;;;;;;23.30;10.98;;;16.50;99.90;;;;;;6272641;22;20398;-57
2021/08/02 05:38:34;;;;;;;17.05;10.30;;;16.50;99.90;;;;;;6274221;22;20004;-53
2021/08/02 05:41:00;;;;;;;17.27;10.90;;;16.60;99.90;;;;;;6272610;22;20432;-55
2021/08/02 05:43:25;;;;;;;16.60;9.93;;;16.60;99.90;;;;;;6273327;22;20454;-57
2021/08/02 05:45:52;;;;;;;20.33;11.38;;;16.60;99.90;;;;;;6273187;22;20000;-55
2021/08/02 05:48:18;;;;;;;18.58;10.63;;;16.60;99.90;;;;;;6273204;22;20451;-56
2021/08/02 05:50:43;;;;;;;18.05;11.18;;;16.70;99.90;;;;;;6273829;22;20007;-56
2021/08/02 05:53:09;;;;;;;25.50;13.30;;;16.70;99.90;;;;;;6273311;22;20015;-54
2021/08/02 05:55:34;;;;;;;19.95;12.18;;;16.70;99.90;;;;;;6272920;22;20054;-58
2021/08/02 05:58:00;;;;;;;22.45;12.40;;;16.60;99.90;;;;;;6275485;22;20114;-60
2021/08/02 06:00:26;;;;;;;18.92;10.10;;;16.60;99.90;;;;;;6253354;22;19992;-60
2021/08/02 06:02:51;;;;;;;17.77;9.82;;;16.60;99.90;;;;;;6279311;22;20049;-60
2021/08/02 06:05:17;;;;;;;18.15;10.38;;;16.60;99.90;;;;;;6254950;22;20436;-59
2021/08/02 06:07:43;;;;;;;29.08;13.20;;;16.70;99.90;;;;;;6278577;22;20007;-60
2021/08/02 06:10:12;;;;;;;23.90;13.35;;;16.80;99.90;;;;;;6280300;22;20066;-61
2021/08/02 06:12:39;;;;;;;22.38;12.60;;;16.70;99.90;;;;;;6280551;22;20004;-60
2021/08/02 06:15:05;;;;;;;23.80;12.90;;;16.80;99.90;;;;;;6282187;22;20000;-61
2021/08/02 06:17:31;;;;;;;21.48;12.27;;;16.80;99.90;;;;;;6280604;22;19996;-59
2021/08/02 06:19:57;;;;;;;22.75;12.13;;;16.80;99.90;;;;;;6282389;22;20067;-61
2021/08/02 06:22:22;;;;;;;18.42;13.23;;;16.80;99.90;;;;;;6282819;22;20496;-60
2021/08/02 06:24:48;;;;;;;32.40;13.88;;;16.80;99.90;;;;;;6281402;22;20038;-60
2021/08/02 06:27:13;;;;;;;31.48;16.98;;;16.70;99.90;;;;;;6279763;22;20062;-60
2021/08/02 06:29:39;;;;;;;23.98;16.15;;;16.50;99.90;;;;;;6280015;22;20031;-61
2021/08/02 06:32:06;;;;;;;30.48;16.55;;;16.60;99.90;;;;;;6281590;22;20003;-61
2021/08/02 06:34:31;;;;;;;26.23;15.68;;;16.50;99.90;;;;;;6277820;22;20014;-60
2021/08/02 06:36:57;;;;;;;25.73;15.15;;;16.40;99.90;;;;;;6278340;22;20004;-59
2021/08/02 06:39:22;;;;;;;26.95;15.02;;;16.40;99.90;;;;;;6279101;22;20000;-60
2021/08/02 06:41:48;;;;;;;30.80;15.85;;;16.40;99.90;;;;;;6277732;22;20003;-61
2021/08/02 06:44:14;;;;;;;27.70;16.83;;;16.40;99.90;;;;;;6276833;22;20007;-61
2021/08/02 06:46:39;;;;;;;34.80;17.55;;;16.30;99.90;;;;;;6274797;22;20428;-60
2021/08/02 06:49:05;;;;;;;29.40;18.42;;;16.30;99.90;;;;;;6279695;22;20458;-60
2021/08/02 06:51:30;;;;;;;24.30;15.52;;;16.30;99.90;;;;;;6280958;22;20065;-62
2021/08/02 06:53:56;;;;;;;27.75;16.13;;;16.30;99.90;;;;;;6280062;22;20065;-60
2021/08/02 06:56:23;;;;;;;27.90;17.20;;;16.30;99.90;;;;;;6281185;22;19995;-61
2021/08/02 06:58:48;;;;;;;27.98;17.98;;;16.30;99.90;;;;;;6282056;22;20129;-62
2021/08/02 07:01:14;;;;;;;35.78;17.88;;;16.20;99.90;;;;;;6279762;22;20004;-61
2021/08/02 07:03:40;;;;;;;40.75;19.73;;;16.30;99.90;;;;;;6278384;22;20003;-61
2021/08/02 07:06:06;;;;;;;37.92;20.73;;;16.20;99.90;;;;;;6274717;22;20008;-62
2021/08/02 07:08:31;;;;;;;34.92;19.65;;;16.20;99.90;;;;;;6273526;22;20000;-61
2021/08/02 07:10:57;;;;;;;26.88;18.27;;;16.10;99.90;;;;;;6273110;22;20004;-61
2021/08/02 07:13:22;;;;;;;39.22;20.58;;;16.10;99.90;;;;;;6273790;22;20003;-62
2021/08/02 07:15:48;;;;;;;35.35;20.90;;;16.10;99.90;;;;;;6273423;22;20004;-62
2021/08/02 07:18:13;;;;;;;39.05;20.98;;;16.20;99.90;;;;;;6273189;22;20004;-62
2021/08/02 07:20:39;;;;;;;34.70;19.80;;;16.20;99.90;;;;;;6272377;22;20039;-61
2021/08/02 07:23:05;;;;;;;34.92;21.23;;;16.20;99.90;;;;;;6272031;22;20076;-61
2021/08/02 07:25:31;;;;;;;40.90;20.48;;;16.20;99.90;;;;;;6271742;22;20007;-60
2021/08/02 07:27:56;;;;;;;35.53;20.40;;;16.10;99.90;;;;;;6272059;22;20102;-61
2021/08/02 07:30:22;;;;;;;33.15;18.67;;;16.10;99.90;;;;;;6272777;22;20011;-61
2021/08/02 07:32:48;;;;;;;33.33;18.67;;;16.10;99.90;;;;;;6272611;22;20026;-59
2021/08/02 07:35:13;;;;;;;30.95;18.52;;;16.10;99.90;;;;;;6272017;22;20003;-59
2021/08/02 07:37:41;;;;;;;30.88;19.15;;;16.10;99.90;;;;;;6273062;22;20015;-61
2021/08/02 07:40:07;;;;;;;39.17;21.50;;;16.10;99.90;;;;;;6272601;22;20031;-61
2021/08/02 07:42:33;;;;;;;29.98;19.13;;;16.10;99.90;;;;;;6272370;22;20046;-61
2021/08/02 07:44:58;;;;;;;31.25;18.73;;;16.20;99.90;;;;;;6272552;22;20004;-61
2021/08/02 07:47:24;;;;;;;31.35;18.25;;;16.20;99.90;;;;;;6273353;22;20080;-61
2021/08/02 07:49:49;;;;;;;29.58;18.50;;;16.20;99.90;;;;;;6273879;22;20087;-61
2021/08/02 07:52:15;;;;;;;28.65;17.90;;;16.10;99.90;;;;;;6273758;22;20851;-62
2021/08/02 07:54:41;;;;;;;34.17;20.35;;;16.20;99.90;;;;;;6269093;22;20075;-61
2021/08/02 07:57:06;;;;;;;39.88;19.85;;;16.20;99.90;;;;;;6269730;22;20010;-62
2021/08/02 07:59:32;;;;;;;34.83;18.42;;;16.00;99.90;;;;;;6271599;22;19999;-61
2021/08/02 08:01:59;;;;;;;31.90;18.73;;;16.00;99.90;;;;;;6274341;22;20488;-61
2021/08/02 08:04:25;;;;;;;32.13;17.90;;;15.90;99.90;;;;;;6276564;22;20035;-61
2021/08/02 08:06:50;;;;;;;37.08;18.38;;;16.00;99.90;;;;;;6276353;22;20018;-61
2021/08/02 08:09:16;;;;;;;31.90;18.15;;;16.00;99.90;;;;;;6278028;22;20007;-62
2021/08/02 08:11:42;;;;;;;28.45;15.50;;;16.00;99.90;;;;;;6278458;22;20041;-61
2021/08/02 08:14:07;;;;;;;28.25;15.43;;;15.90;99.90;;;;;;6277430;22;20029;-61
2021/08/02 08:16:33;;;;;;;26.40;16.08;;;15.90;99.90;;;;;;6276759;22;20011;-60
2021/08/02 08:18:59;;;;;;;27.33;15.23;;;15.90;99.90;;;;;;6277827;22;20031;-62
2021/08/02 08:21:24;;;;;;;28.98;16.33;;;15.90;99.90;;;;;;6276829;22;20000;-61
2021/08/02 08:23:50;;;;;;;28.83;15.07;;;15.90;99.90;;;;;;6278505;22;19999;-60
2021/08/02 08:26:19;;;;;;;28.38;14.90;;;15.80;99.90;;;;;;6279454;22;20083;-62
2021/08/02 08:28:45;;;;;;;33.30;16.25;;;15.80;99.90;;;;;;6280032;22;19999;-62
2021/08/02 08:31:10;;;;;;;27.35;16.00;;;15.70;99.90;;;;;;6280550;22;20011;-62
2021/08/02 08:33:36;;;;;;;30.77;16.23;;;15.80;99.90;;;;;;6280479;22;20003;-62
2021/08/02 08:36:01;;;;;;;31.40;14.95;;;15.70;99.90;;;;;;6279382;22;20066;-61
2021/08/02 08:38:27;;;;;;;29.25;14.02;;;15.70;99.90;;;;;;6281008;22;19999;-61
2021/08/02 08:40:53;;;;;;;28.80;14.23;;;15.60;99.90;;;;;;6279442;22;19996;-62
2021/08/02 08:43:19;;;;;;;25.08;14.95;;;15.60;99.90;;;;;;6280307;22;20027;-62
2021/08/02 08:45:46;;;;;;;27.60;14.98;;;15.70;99.90;;;;;;6278754;22;20004;-61
2021/08/02 08:48:12;;;;;;;29.35;14.90;;;15.70;99.90;;;;;;6277903;22;20008;-61
2021/08/02 08:50:39;;;;;;;30.70;17.60;;;15.60;99.90;;;;;;6276220;22;20011;-61
2021/08/02 08:53:05;;;;;;;32.47;18.58;;;15.70;99.90;;;;;;6278785;22;20023;-61
2021/08/02 08:55:30;;;;;;;34.92;18.25;;;15.70;99.90;;;;;;6277854;22;20007;-60
2021/08/02 08:57:59;;;;;;;43.95;20.00;;;15.80;99.90;;;;;;6279536;22;20007;-61
2021/08/02 09:00:27;;;;;;;31.50;17.67;;;15.90;99.90;;;;;;6279305;22;19996;-61
2021/08/02 09:02:54;;;;;;;44.40;23.60;;;15.90;99.90;;;;;;6277899;22;20003;-61
2021/08/02 09:05:21;;;;;;;28.00;15.43;;;15.90;99.90;;;;;;6276925;22;20082;-61
2021/08/02 09:07:47;;;;;;;30.80;14.82;;;15.90;99.90;;;;;;6279328;22;20006;-61
2021/08/02 09:10:15;;;;;;;35.03;14.00;;;15.80;99.90;;;;;;6279911;22;20469;-62
2021/08/02 09:12:56;;;;;;;35.22;14.63;;;15.80;99.90;;;;;;6278524;22;19995;-61
2021/08/02 09:15:42;;;;;;;24.27;13.60;;;15.90;99.90;;;;;;6250896;22;20014;-61
2021/08/02 09:18:21;;;;;;;30.60;13.35;;;15.90;99.90;;;;;;6278087;22;20086;-62
2021/08/02 09:20:57;;;;;;;22.23;11.05;;;15.90;99.90;;;;;;6277944;22;20000;-61
2021/08/02 09:23:23;;;;;;;21.52;10.20;;;15.90;99.90;;;;;;6280292;22;20010;-62
2021/08/02 09:25:55;;;;;;;21.73;10.43;;;16.10;99.90;;;;;;6277965;22;20019;-62
2021/08/02 09:28:22;;;;;;;25.25;10.63;;;16.20;99.90;;;;;;6280076;22;20004;-62
2021/08/02 09:31:03;;;;;;;24.13;11.10;;;16.30;99.90;;;;;;6281853;22;19999;-61
2021/08/02 09:33:45;;;;;;;19.17;10.07;;;16.60;99.90;;;;;;6279749;22;20336;-61
2021/08/02 09:36:11;;;;;;;17.38;7.97;;;16.80;99.90;;;;;;6278289;22;20133;-61
2021/08/02 09:38:37;;;;;;;18.45;7.80;;;16.80;99.90;;;;;;6250919;22;20003;-60
2021/08/02 09:41:02;;;;;;;15.70;7.22;;;16.80;99.90;;;;;;6277894;22;20000;-61
2021/08/02 09:43:30;;;;;;;20.00;6.82;;;16.80;99.90;;;;;;6275228;22;20031;-61
2021/08/02 09:46:03;;;;;;;23.88;7.85;;;16.90;99.90;;;;;;6274926;22;20333;-61
2021/08/02 09:48:36;;;;;;;19.17;5.53;;;17.10;99.90;;;;;;6272827;22;20057;-60
2021/08/02 09:51:10;;;;;;;11.93;4.78;;;17.40;99.90;;;;;;6273839;22;20004;-60
2021/08/02 09:53:38;;;;;;;15.02;5.72;;;17.30;99.90;;;;;;6275400;22;20053;-60
2021/08/02 09:56:04;;;;;;;15.60;3.97;;;17.40;99.90;;;;;;6273239;22;20000;-59
2021/08/02 09:58:30;;;;;;;17.65;6.30;;;17.40;99.90;;;;;;6273057;22;20027;-61
2021/08/02 10:00:56;;;;;;;9.35;4.03;;;17.50;99.90;;;;;;6273442;22;20424;-61
2021/08/02 10:03:22;;;;;;;16.67;3.80;;;17.40;99.90;;;;;;6273216;22;20336;-62
2021/08/02 10:05:49;;;;;;;13.45;4.25;;;17.50;99.90;;;;;;6272270;22;20035;-60
2021/08/02 10:08:17;;;;;;;16.98;4.13;;;17.60;99.90;;;;;;6271947;22;20070;-61
2021/08/02 10:10:43;;;;;;;10.38;2.67;;;17.60;99.90;;;;;;6272841;22;20007;-61
2021/08/02 10:13:10;;;;;;;5.60;2.60;;;17.70;99.90;;;;;;6272278;22;20054;-60
2021/08/02 10:15:36;;;;;;;13.13;4.22;;;17.90;99.90;;;;;;6273432;22;20308;-61
2021/08/02 10:18:05;;;;;;;9.75;3.47;;;18.00;99.90;;;;;;6273186;22;20007;-60
2021/08/02 10:20:32;;;;;;;11.93;3.70;;;18.00;99.90;;;;;;6275002;22;20004;-61
2021/08/02 10:23:00;;;;;;;11.23;3.17;;;17.80;99.90;;;;;;6274356;22;20038;-61
2021/08/02 10:25:40;;;;;;;9.93;3.55;;;17.60;99.90;;;;;;6272496;22;20378;-60
2021/08/02 10:28:11;;;;;;;8.80;3.38;;;17.70;99.90;;;;;;6273720;22;20015;-61
2021/08/02 10:30:38;;;;;;;7.15;3.47;;;17.90;99.90;;;;;;6272700;22;20367;-61
2021/08/02 10:33:04;;;;;;;7.03;3.05;;;18.10;99.90;;;;;;6273611;22;20531;-61
2021/08/02 10:35:48;;;;;;;8.63;3.28;;;18.30;99.90;;;;;;6273965;22;20023;-60
2021/08/02 10:38:15;;;;;;;9.75;3.30;;;18.50;99.90;;;;;;6272972;22;20380;-61
2021/08/02 10:40:57;;;;;;;13.15;4.03;;;18.70;99.90;;;;;;6273954;22;20022;-61
2021/08/02 10:43:26;;;;;;;13.27;3.30;;;18.80;99.90;;;;;;6274431;22;20007;-60
2021/08/02 10:45:52;;;;;;;10.45;3.60;;;18.80;99.90;;;;;;6274237;22;20646;-60
2021/08/02 10:48:24;;;;;;;13.43;3.60;;;18.90;99.90;;;;;;6274752;22;20008;-61
2021/08/02 10:50:50;;;;;;;11.88;4.30;;;18.80;99.90;;;;;;6274502;22;20023;-61
2021/08/02 10:53:20;;;;;;;6.00;2.90;;;18.80;99.90;;;;;;6271602;22;20003;-58
2021/08/02 10:55:49;;;;;;;8.00;2.85;;;18.60;99.90;;;;;;6267914;22;20541;-59
2021/08/02 10:58:29;;;;;;;10.30;3.45;;;18.40;99.90;;;;;;6269427;22;20054;-60
2021/08/02 11:00:56;;;;;;;6.57;3.58;;;18.50;99.90;;;;;;6269972;22;20023;-59
2021/08/02 11:03:36;;;;;;;8.20;3.28;;;18.60;99.90;;;;;;6268759;22;20003;-55
2021/08/02 11:06:18;;;;;;;16.33;4.65;;;18.70;99.90;;;;;;6268615;22;20037;-58
2021/08/02 11:08:51;;;;;;;6.70;3.35;;;18.70;99.90;;;;;;6268045;22;20018;-57
2021/08/02 11:11:30;;;;;;;11.82;3.30;;;18.70;99.90;;;;;;6267882;22;20004;-58
2021/08/02 11:14:10;;;;;;;8.40;3.22;;;18.80;99.90;;;;;;6268295;22;20003;-57
2021/08/02 11:16:44;;;;;;;7.88;3.33;;;18.80;99.90;;;;;;6267533;22;19996;-54
2021/08/02 11:19:28;;;;;;;12.85;3.28;;;18.80;99.90;;;;;;6268081;22;20413;-56
2021/08/02 11:22:00;;;;;;;11.30;2.83;;;18.70;99.90;;;;;;6269367;22;20076;-54
2021/08/02 11:24:27;;;;;;;6.65;3.25;;;18.50;99.90;;;;;;6269281;22;20004;-56
2021/08/02 11:26:54;;;;;;;6.93;3.20;;;18.50;99.90;;;;;;6268664;22;20357;-58
2021/08/02 11:29:25;;;;;;;7.95;2.60;;;18.50;99.90;;;;;;6269023;22;20069;-58
2021/08/02 11:31:59;;;;;;;5.07;2.80;;;18.60;99.90;;;;;;6269541;22;20014;-55
2021/08/02 11:34:26;;;;;;;9.70;3.15;;;18.60;99.90;;;;;;6268702;22;20436;-56
2021/08/02 11:37:00;;;;;;;7.75;2.38;;;18.90;99.90;;;;;;6267917;22;20054;-55
2021/08/02 11:39:26;;;;;;;;;;;18.80;99.90;;;;;;6269365;22;20448;-58
2021/08/02 11:42:06;;;;;;;10.50;2.35;;;18.70;99.90;;;;;;6269053;22;19910;-56
2021/08/02 11:44:34;;;;;;;7.57;3.20;;;18.70;99.90;;;;;;6269536;22;20004;-59
2021/08/02 11:47:01;;;;;;;6.93;3.10;;;18.60;99.90;;;;;;6268997;22;20003;-60
2021/08/02 11:49:27;;;;;;;7.93;3.17;;;18.60;99.90;;;;;;6268651;22;20383;-56
2021/08/02 11:51:55;;;;;;;6.90;2.60;;;18.60;99.90;;;;;;6267453;22;20003;-61
2021/08/02 11:54:22;;;;;;;5.32;2.83;;;18.40;99.90;;;;;;6268365;22;20007;-54
2021/08/02 11:56:48;;;;;;;4.88;2.40;;;18.40;99.90;;;;;;6267927;22;20004;-56
2021/08/02 11:59:24;;;;;;;7.40;3.15;;;18.50;99.90;;;;;;6267936;22;20035;-58
2021/08/02 12:01:52;;;;;;;6.43;2.90;;;18.50;99.90;;;;;;6269340;22;20023;-54
2021/08/02 12:04:19;;;;;;;6.85;3.20;;;18.70;99.90;;;;;;6267931;22;20054;-60
2021/08/02 12:06:57;;;;;;;9.27;3.42;;;18.80;99.90;;;;;;6267472;22;20452;-56
2021/08/02 12:09:37;;;;;;;7.55;2.65;;;18.80;99.90;;;;;;6268920;22;20007;-59
2021/08/02 12:12:07;;;;;;;5.95;2.90;;;18.70;99.90;;;;;;6270588;22;20031;-60
2021/08/02 12:14:34;;;;;;;15.05;2.90;;;19.20;99.90;;;;;;6271815;22;20090;-61
2021/08/02 12:17:06;;;;;;;8.30;3.35;;;19.70;99.90;;;;;;6270323;22;20300;-60
2021/08/02 12:19:42;;;;;;;5.65;2.88;;;19.70;99.90;;;;;;6271300;22;20023;-59
2021/08/02 12:22:08;;;;;;;7.70;3.60;;;19.70;99.90;;;;;;6272334;22;20049;-60
2021/08/02 12:24:33;;;;;;;9.40;3.40;;;19.70;99.90;;;;;;6268333;22;20023;-59
2021/08/02 12:26:59;;;;;;;6.85;3.15;;;19.90;99.90;;;;;;6270229;22;20079;-60
2021/08/02 12:29:29;;;;;;;5.65;3.30;;;20.00;99.90;;;;;;6269552;22;20000;-62
2021/08/02 12:32:00;;;;;;;8.77;3.35;;;20.00;99.90;;;;;;6271792;22;20004;-61
2021/08/02 12:34:27;;;;;;;6.43;3.10;;;20.10;99.90;;;;;;6271888;22;20008;-60
2021/08/02 12:36:57;;;;;;;7.93;3.65;;;20.10;99.90;;;;;;6271028;22;20026;-59
2021/08/02 12:39:29;;;;;;;6.95;3.72;;;20.20;99.90;;;;;;6270383;22;20000;-60